sensor_id;sensor_type;location;lat;lon;timestamp;temperature;humidity
74657;DHT22;63185;45.642;13.764;2023-06-10T00:01:25;23.60;68.60
74657;DHT22;63185;45.642;13.764;2023-06-10T00:03:51;23.60;68.70
74657;DHT22;63185;45.642;13.764;2023-06-10T00:06:19;23.70;68.60
74657;DHT22;63185;45.642;13.764;2023-06-10T00:08:47;23.70;68.50
74657;DHT22;63185;45.642;13.764;2023-06-10T00:11:13;23.70;68.70
74657;DHT22;63185;45.642;13.764;2023-06-10T00:13:39;23.70;68.40
74657;DHT22;63185;45.642;13.764;2023-06-10T00:16:05;23.70;68.50
74657;DHT22;63185;45.642;13.764;2023-06-10T00:18:31;23.70;68.50
74657;DHT22;63185;45.642;13.764;2023-06-10T00:20:57;23.70;68.80
74657;DHT22;63185;45.642;13.764;2023-06-10T00:23:28;23.70;68.60
74657;DHT22;63185;45.642;13.764;2023-06-10T00:25:57;23.70;68.70
74657;DHT22;63185;45.642;13.764;2023-06-10T00:28:23;23.60;68.50
74657;DHT22;63185;45.642;13.764;2023-06-10T00:30:49;23.60;68.60
74657;DHT22;63185;45.642;13.764;2023-06-10T00:33:14;23.60;68.30
74657;DHT22;63185;45.642;13.764;2023-06-10T00:35:40;23.70;68.50
74657;DHT22;63185;45.642;13.764;2023-06-10T00:38:06;23.70;68.30
74657;DHT22;63185;45.642;13.764;2023-06-10T00:40:33;23.70;68.40
74657;DHT22;63185;45.642;13.764;2023-06-10T00:43:04;23.60;68.40
74657;DHT22;63185;45.642;13.764;2023-06-10T00:45:29;23.70;68.40
74657;DHT22;63185;45.642;13.764;2023-06-10T00:47:55;23.60;68.60
74657;DHT22;63185;45.642;13.764;2023-06-10T00:50:21;23.60;68.50
74657;DHT22;63185;45.642;13.764;2023-06-10T00:52:47;23.60;68.50
74657;DHT22;63185;45.642;13.764;2023-06-10T00:55:16;23.60;68.60
74657;DHT22;63185;45.642;13.764;2023-06-10T00:57:42;23.50;68.70
74657;DHT22;63185;45.642;13.764;2023-06-10T01:00:10;23.50;68.60
74657;DHT22;63185;45.642;13.764;2023-06-10T01:02:38;23.50;68.80
74657;DHT22;63185;45.642;13.764;2023-06-10T01:05:04;23.50;68.90
74657;DHT22;63185;45.642;13.764;2023-06-10T01:07:42;23.50;68.70
74657;DHT22;63185;45.642;13.764;2023-06-10T01:10:24;23.40;69.00
74657;DHT22;63185;45.642;13.764;2023-06-10T01:12:59;23.50;68.90
74657;DHT22;63185;45.642;13.764;2023-06-10T01:15:31;23.40;69.00
74657;DHT22;63185;45.642;13.764;2023-06-10T01:18:04;23.40;69.10
74657;DHT22;63185;45.642;13.764;2023-06-10T01:20:35;23.40;69.30
74657;DHT22;63185;45.642;13.764;2023-06-10T01:23:05;23.40;69.40
74657;DHT22;63185;45.642;13.764;2023-06-10T01:25:32;23.30;69.30
74657;DHT22;63185;45.642;13.764;2023-06-10T01:33:15;23.30;69.10
74657;DHT22;63185;45.642;13.764;2023-06-10T01:35:43;23.30;69.00
74657;DHT22;63185;45.642;13.764;2023-06-10T01:38:11;23.30;69.20
74657;DHT22;63185;45.642;13.764;2023-06-10T01:40:38;23.30;69.40
74657;DHT22;63185;45.642;13.764;2023-06-10T01:43:04;23.20;69.20
74657;DHT22;63185;45.642;13.764;2023-06-10T01:45:30;23.20;69.30
74657;DHT22;63185;45.642;13.764;2023-06-10T01:47:56;23.20;69.40
74657;DHT22;63185;45.642;13.764;2023-06-10T01:50:21;23.20;69.20
74657;DHT22;63185;45.642;13.764;2023-06-10T01:52:47;23.10;69.40
74657;DHT22;63185;45.642;13.764;2023-06-10T01:55:13;23.10;69.40
74657;DHT22;63185;45.642;13.764;2023-06-10T01:57:39;23.10;69.30
74657;DHT22;63185;45.642;13.764;2023-06-10T02:00:05;23.10;69.20
74657;DHT22;63185;45.642;13.764;2023-06-10T02:02:31;23.10;69.00
74657;DHT22;63185;45.642;13.764;2023-06-10T02:04:57;23.10;68.80
74657;DHT22;63185;45.642;13.764;2023-06-10T02:07:23;23.10;68.80
74657;DHT22;63185;45.642;13.764;2023-06-10T02:09:48;23.10;68.50
74657;DHT22;63185;45.642;13.764;2023-06-10T02:12:14;23.10;68.30
74657;DHT22;63185;45.642;13.764;2023-06-10T02:14:40;23.20;68.00
74657;DHT22;63185;45.642;13.764;2023-06-10T02:17:05;23.20;67.90
74657;DHT22;63185;45.642;13.764;2023-06-10T02:19:31;23.20;67.60
74657;DHT22;63185;45.642;13.764;2023-06-10T02:21:57;23.10;68.00
74657;DHT22;63185;45.642;13.764;2023-06-10T02:24:22;23.10;68.10
74657;DHT22;63185;45.642;13.764;2023-06-10T02:26:48;23.10;68.00
74657;DHT22;63185;45.642;13.764;2023-06-10T02:29:14;23.10;68.20
74657;DHT22;63185;45.642;13.764;2023-06-10T02:31:39;23.10;68.20
74657;DHT22;63185;45.642;13.764;2023-06-10T02:34:06;23.00;68.40
74657;DHT22;63185;45.642;13.764;2023-06-10T02:36:32;23.00;68.50
74657;DHT22;63185;45.642;13.764;2023-06-10T02:38:57;23.00;68.30
74657;DHT22;63185;45.642;13.764;2023-06-10T02:41:23;23.00;68.50
74657;DHT22;63185;45.642;13.764;2023-06-10T02:43:50;22.90;68.70
74657;DHT22;63185;45.642;13.764;2023-06-10T02:46:16;23.00;68.80
74657;DHT22;63185;45.642;13.764;2023-06-10T02:48:42;23.00;68.60
74657;DHT22;63185;45.642;13.764;2023-06-10T02:51:11;23.00;68.60
74657;DHT22;63185;45.642;13.764;2023-06-10T02:53:37;23.00;68.80
74657;DHT22;63185;45.642;13.764;2023-06-10T02:56:03;22.90;68.60
74657;DHT22;63185;45.642;13.764;2023-06-10T02:58:29;22.90;68.70
74657;DHT22;63185;45.642;13.764;2023-06-10T03:00:54;22.90;68.70
74657;DHT22;63185;45.642;13.764;2023-06-10T03:03:20;22.90;68.80
74657;DHT22;63185;45.642;13.764;2023-06-10T03:05:48;22.90;69.10
74657;DHT22;63185;45.642;13.764;2023-06-10T03:08:14;22.90;69.10
74657;DHT22;63185;45.642;13.764;2023-06-10T03:10:39;22.90;69.20
74657;DHT22;63185;45.642;13.764;2023-06-10T03:13:05;22.90;69.20
74657;DHT22;63185;45.642;13.764;2023-06-10T03:15:31;22.90;69.30
74657;DHT22;63185;45.642;13.764;2023-06-10T03:17:59;22.90;69.60
74657;DHT22;63185;45.642;13.764;2023-06-10T03:20:25;22.80;69.60
74657;DHT22;63185;45.642;13.764;2023-06-10T03:22:53;22.80;69.60
74657;DHT22;63185;45.642;13.764;2023-06-10T03:25:19;22.80;69.70
74657;DHT22;63185;45.642;13.764;2023-06-10T03:27:46;22.80;69.70
74657;DHT22;63185;45.642;13.764;2023-06-10T03:30:13;22.70;69.70
74657;DHT22;63185;45.642;13.764;2023-06-10T03:32:39;22.80;69.80
74657;DHT22;63185;45.642;13.764;2023-06-10T03:35:06;22.80;69.40
74657;DHT22;63185;45.642;13.764;2023-06-10T03:37:32;22.90;69.40
74657;DHT22;63185;45.642;13.764;2023-06-10T03:39:58;22.90;69.20
74657;DHT22;63185;45.642;13.764;2023-06-10T03:42:24;22.90;69.10
74657;DHT22;63185;45.642;13.764;2023-06-10T03:44:50;23.00;68.80
74657;DHT22;63185;45.642;13.764;2023-06-10T03:47:16;23.00;68.70
74657;DHT22;63185;45.642;13.764;2023-06-10T03:49:41;23.00;68.40
74657;DHT22;63185;45.642;13.764;2023-06-10T03:52:07;23.10;68.40
74657;DHT22;63185;45.642;13.764;2023-06-10T03:54:33;23.10;68.30
74657;DHT22;63185;45.642;13.764;2023-06-10T03:57:02;23.10;68.00
74657;DHT22;63185;45.642;13.764;2023-06-10T03:59:29;23.10;68.10
74657;DHT22;63185;45.642;13.764;2023-06-10T04:01:54;23.10;68.30
74657;DHT22;63185;45.642;13.764;2023-06-10T04:04:20;23.20;68.50
74657;DHT22;63185;45.642;13.764;2023-06-10T04:06:46;23.20;68.10
74657;DHT22;63185;45.642;13.764;2023-06-10T04:09:13;23.20;68.00
74657;DHT22;63185;45.642;13.764;2023-06-10T04:11:39;23.30;68.10
74657;DHT22;63185;45.642;13.764;2023-06-10T04:14:05;23.30;67.80
74657;DHT22;63185;45.642;13.764;2023-06-10T04:16:30;23.40;67.60
74657;DHT22;63185;45.642;13.764;2023-06-10T04:18:56;23.40;67.70
74657;DHT22;63185;45.642;13.764;2023-06-10T04:21:23;23.40;67.70
74657;DHT22;63185;45.642;13.764;2023-06-10T04:23:48;23.50;67.40
74657;DHT22;63185;45.642;13.764;2023-06-10T04:26:14;23.50;66.90
74657;DHT22;63185;45.642;13.764;2023-06-10T04:28:43;23.50;67.20
74657;DHT22;63185;45.642;13.764;2023-06-10T04:31:08;23.60;66.40
74657;DHT22;63185;45.642;13.764;2023-06-10T04:33:35;23.60;66.20
74657;DHT22;63185;45.642;13.764;2023-06-10T04:36:01;23.60;66.50
74657;DHT22;63185;45.642;13.764;2023-06-10T04:38:27;23.70;66.40
74657;DHT22;63185;45.642;13.764;2023-06-10T04:40:53;23.80;66.30
74657;DHT22;63185;45.642;13.764;2023-06-10T04:43:19;23.80;65.90
74657;DHT22;63185;45.642;13.764;2023-06-10T04:45:45;24.00;65.10
74657;DHT22;63185;45.642;13.764;2023-06-10T04:48:11;24.00;65.20
74657;DHT22;63185;45.642;13.764;2023-06-10T04:50:37;24.00;65.40
74657;DHT22;63185;45.642;13.764;2023-06-10T04:53:03;24.10;65.60
74657;DHT22;63185;45.642;13.764;2023-06-10T04:55:28;24.10;64.90
74657;DHT22;63185;45.642;13.764;2023-06-10T04:57:55;24.00;64.60
74657;DHT22;63185;45.642;13.764;2023-06-10T05:00:20;24.10;64.90
74657;DHT22;63185;45.642;13.764;2023-06-10T05:02:46;24.20;64.60
74657;DHT22;63185;45.642;13.764;2023-06-10T05:05:18;24.10;64.30
74657;DHT22;63185;45.642;13.764;2023-06-10T05:07:44;24.10;64.50
74657;DHT22;63185;45.642;13.764;2023-06-10T05:10:10;24.20;64.20
74657;DHT22;63185;45.642;13.764;2023-06-10T05:12:38;24.20;64.10
74657;DHT22;63185;45.642;13.764;2023-06-10T05:15:05;24.30;64.10
74657;DHT22;63185;45.642;13.764;2023-06-10T05:17:31;24.30;63.90
74657;DHT22;63185;45.642;13.764;2023-06-10T05:19:57;24.30;63.60
74657;DHT22;63185;45.642;13.764;2023-06-10T05:22:23;24.40;63.70
74657;DHT22;63185;45.642;13.764;2023-06-10T05:24:51;24.50;63.80
74657;DHT22;63185;45.642;13.764;2023-06-10T05:27:17;24.60;63.20
74657;DHT22;63185;45.642;13.764;2023-06-10T05:29:43;24.60;62.70
74657;DHT22;63185;45.642;13.764;2023-06-10T05:32:09;24.80;62.30
74657;DHT22;63185;45.642;13.764;2023-06-10T05:34:35;24.70;62.00
74657;DHT22;63185;45.642;13.764;2023-06-10T05:37:00;24.80;61.50
74657;DHT22;63185;45.642;13.764;2023-06-10T05:39:26;25.00;61.20
74657;DHT22;63185;45.642;13.764;2023-06-10T05:41:52;25.10;61.10
74657;DHT22;63185;45.642;13.764;2023-06-10T05:44:17;25.10;61.60
74657;DHT22;63185;45.642;13.764;2023-06-10T05:46:43;24.90;60.40
74657;DHT22;63185;45.642;13.764;2023-06-10T05:49:09;24.90;60.90
74657;DHT22;63185;45.642;13.764;2023-06-10T05:51:34;24.90;61.20
74657;DHT22;63185;45.642;13.764;2023-06-10T05:54:00;24.90;61.80
74657;DHT22;63185;45.642;13.764;2023-06-10T05:56:26;24.90;61.90
74657;DHT22;63185;45.642;13.764;2023-06-10T05:58:52;24.70;61.50
74657;DHT22;63185;45.642;13.764;2023-06-10T06:01:17;24.60;63.80
74657;DHT22;63185;45.642;13.764;2023-06-10T06:03:43;24.60;65.00
74657;DHT22;63185;45.642;13.764;2023-06-10T06:06:09;24.40;65.40
74657;DHT22;63185;45.642;13.764;2023-06-10T06:08:34;24.40;66.60
74657;DHT22;63185;45.642;13.764;2023-06-10T06:11:00;24.40;66.90
74657;DHT22;63185;45.642;13.764;2023-06-10T06:13:26;24.30;67.40
74657;DHT22;63185;45.642;13.764;2023-06-10T06:15:51;24.20;66.80
74657;DHT22;63185;45.642;13.764;2023-06-10T06:18:18;24.20;67.00
74657;DHT22;63185;45.642;13.764;2023-06-10T06:20:44;24.30;67.40
74657;DHT22;63185;45.642;13.764;2023-06-10T06:23:10;24.30;67.90
74657;DHT22;63185;45.642;13.764;2023-06-10T06:25:36;24.40;67.40
74657;DHT22;63185;45.642;13.764;2023-06-10T06:28:07;24.50;66.40
74657;DHT22;63185;45.642;13.764;2023-06-10T06:30:34;24.40;67.20
74657;DHT22;63185;45.642;13.764;2023-06-10T06:33:01;24.60;65.70
74657;DHT22;63185;45.642;13.764;2023-06-10T06:35:26;24.60;66.50
74657;DHT22;63185;45.642;13.764;2023-06-10T06:37:52;24.60;66.30
74657;DHT22;63185;45.642;13.764;2023-06-10T06:40:18;24.70;66.20
74657;DHT22;63185;45.642;13.764;2023-06-10T06:42:44;24.90;65.80
74657;DHT22;63185;45.642;13.764;2023-06-10T06:45:10;24.80;66.50
74657;DHT22;63185;45.642;13.764;2023-06-10T06:47:35;24.80;66.00
74657;DHT22;63185;45.642;13.764;2023-06-10T06:50:01;24.70;66.10
74657;DHT22;63185;45.642;13.764;2023-06-10T06:52:28;24.80;66.10
74657;DHT22;63185;45.642;13.764;2023-06-10T06:54:54;24.80;66.40
74657;DHT22;63185;45.642;13.764;2023-06-10T06:57:20;24.90;65.90
74657;DHT22;63185;45.642;13.764;2023-06-10T06:59:45;24.80;66.30
74657;DHT22;63185;45.642;13.764;2023-06-10T07:02:11;24.80;66.50
74657;DHT22;63185;45.642;13.764;2023-06-10T07:04:37;24.80;66.20
74657;DHT22;63185;45.642;13.764;2023-06-10T07:07:04;24.90;67.10
74657;DHT22;63185;45.642;13.764;2023-06-10T07:09:30;25.10;66.40
74657;DHT22;63185;45.642;13.764;2023-06-10T07:11:55;25.30;65.90
74657;DHT22;63185;45.642;13.764;2023-06-10T07:14:21;25.40;65.40
74657;DHT22;63185;45.642;13.764;2023-06-10T07:16:47;25.40;65.60
74657;DHT22;63185;45.642;13.764;2023-06-10T07:19:13;25.20;66.00
74657;DHT22;63185;45.642;13.764;2023-06-10T07:21:39;25.10;66.70
74657;DHT22;63185;45.642;13.764;2023-06-10T07:24:05;25.30;66.30
74657;DHT22;63185;45.642;13.764;2023-06-10T07:26:31;25.50;65.30
74657;DHT22;63185;45.642;13.764;2023-06-10T07:28:57;25.30;64.70
74657;DHT22;63185;45.642;13.764;2023-06-10T07:31:23;25.20;65.70
74657;DHT22;63185;45.642;13.764;2023-06-10T07:33:48;25.20;64.70
74657;DHT22;63185;45.642;13.764;2023-06-10T07:36:14;25.40;64.50
74657;DHT22;63185;45.642;13.764;2023-06-10T07:38:40;25.60;64.10
74657;DHT22;63185;45.642;13.764;2023-06-10T07:41:08;25.60;63.70
74657;DHT22;63185;45.642;13.764;2023-06-10T07:43:33;25.80;62.60
74657;DHT22;63185;45.642;13.764;2023-06-10T07:45:59;25.70;63.00
74657;DHT22;63185;45.642;13.764;2023-06-10T07:48:25;25.60;62.40
74657;DHT22;63185;45.642;13.764;2023-06-10T07:50:51;25.90;61.40
74657;DHT22;63185;45.642;13.764;2023-06-10T07:53:17;26.10;60.90
74657;DHT22;63185;45.642;13.764;2023-06-10T07:55:44;26.20;60.50
74657;DHT22;63185;45.642;13.764;2023-06-10T07:58:09;26.30;61.20
74657;DHT22;63185;45.642;13.764;2023-06-10T08:00:35;26.30;61.60
74657;DHT22;63185;45.642;13.764;2023-06-10T08:03:01;26.20;61.10
74657;DHT22;63185;45.642;13.764;2023-06-10T08:05:27;26.00;61.40
74657;DHT22;63185;45.642;13.764;2023-06-10T08:07:52;26.10;61.50
74657;DHT22;63185;45.642;13.764;2023-06-10T08:10:18;26.20;60.30
74657;DHT22;63185;45.642;13.764;2023-06-10T08:12:44;26.00;61.60
74657;DHT22;63185;45.642;13.764;2023-06-10T08:15:10;26.00;62.40
74657;DHT22;63185;45.642;13.764;2023-06-10T08:17:36;26.10;62.50
74657;DHT22;63185;45.642;13.764;2023-06-10T08:20:02;26.30;60.80
74657;DHT22;63185;45.642;13.764;2023-06-10T08:22:28;26.30;61.10
74657;DHT22;63185;45.642;13.764;2023-06-10T08:24:54;26.20;61.50
74657;DHT22;63185;45.642;13.764;2023-06-10T08:27:21;26.20;62.60
74657;DHT22;63185;45.642;13.764;2023-06-10T08:29:47;26.20;62.20
74657;DHT22;63185;45.642;13.764;2023-06-10T08:32:12;26.30;61.70
74657;DHT22;63185;45.642;13.764;2023-06-10T08:34:38;26.20;61.10
74657;DHT22;63185;45.642;13.764;2023-06-10T08:37:04;25.90;62.80
74657;DHT22;63185;45.642;13.764;2023-06-10T08:39:30;25.60;63.40
74657;DHT22;63185;45.642;13.764;2023-06-10T08:42:11;25.50;64.30
74657;DHT22;63185;45.642;13.764;2023-06-10T08:44:43;25.60;65.00
74657;DHT22;63185;45.642;13.764;2023-06-10T08:47:17;25.80;63.90
74657;DHT22;63185;45.642;13.764;2023-06-10T08:49:45;25.70;64.40
74657;DHT22;63185;45.642;13.764;2023-06-10T08:52:16;25.70;65.30
74657;DHT22;63185;45.642;13.764;2023-06-10T08:54:46;25.80;65.30
74657;DHT22;63185;45.642;13.764;2023-06-10T08:57:14;25.60;66.20
74657;DHT22;63185;45.642;13.764;2023-06-10T08:59:41;25.90;65.60
74657;DHT22;63185;45.642;13.764;2023-06-10T09:02:07;26.10;64.80
74657;DHT22;63185;45.642;13.764;2023-06-10T09:04:35;25.80;66.30
74657;DHT22;63185;45.642;13.764;2023-06-10T09:07:02;25.90;65.80
74657;DHT22;63185;45.642;13.764;2023-06-10T09:09:29;25.90;66.40
74657;DHT22;63185;45.642;13.764;2023-06-10T09:11:58;25.90;66.40
74657;DHT22;63185;45.642;13.764;2023-06-10T09:14:24;26.10;66.60
74657;DHT22;63185;45.642;13.764;2023-06-10T09:16:49;26.20;66.10
74657;DHT22;63185;45.642;13.764;2023-06-10T09:19:18;26.50;65.70
74657;DHT22;63185;45.642;13.764;2023-06-10T09:21:46;26.50;66.10
74657;DHT22;63185;45.642;13.764;2023-06-10T09:24:12;26.80;65.10
74657;DHT22;63185;45.642;13.764;2023-06-10T09:26:38;26.70;63.70
74657;DHT22;63185;45.642;13.764;2023-06-10T09:44:34;24.60;71.80
74657;DHT22;63185;45.642;13.764;2023-06-10T09:47:03;25.60;70.10
74657;DHT22;63185;45.642;13.764;2023-06-10T09:49:29;25.60;70.20
74657;DHT22;63185;45.642;13.764;2023-06-10T09:51:55;25.40;69.00
74657;DHT22;63185;45.642;13.764;2023-06-10T09:54:22;25.40;69.90
74657;DHT22;63185;45.642;13.764;2023-06-10T09:56:49;25.30;69.30
74657;DHT22;63185;45.642;13.764;2023-06-10T09:59:15;25.70;68.90
74657;DHT22;63185;45.642;13.764;2023-06-10T10:01:41;25.90;69.40
74657;DHT22;63185;45.642;13.764;2023-06-10T10:04:07;25.90;67.60
74657;DHT22;63185;45.642;13.764;2023-06-10T10:06:34;26.10;67.30
74657;DHT22;63185;45.642;13.764;2023-06-10T10:09:00;26.10;67.20
74657;DHT22;63185;45.642;13.764;2023-06-10T10:11:27;26.40;67.60
74657;DHT22;63185;45.642;13.764;2023-06-10T10:13:53;26.50;66.00
74657;DHT22;63185;45.642;13.764;2023-06-10T10:16:36;26.60;65.00
74657;DHT22;63185;45.642;13.764;2023-06-10T10:19:23;26.30;66.60
74657;DHT22;63185;45.642;13.764;2023-06-10T10:21:53;26.10;67.90
74657;DHT22;63185;45.642;13.764;2023-06-10T10:24:30;26.30;67.90
74657;DHT22;63185;45.642;13.764;2023-06-10T10:26:59;26.40;67.80
74657;DHT22;63185;45.642;13.764;2023-06-10T10:29:33;26.40;67.00
74657;DHT22;63185;45.642;13.764;2023-06-10T10:32:02;26.30;67.30
74657;DHT22;63185;45.642;13.764;2023-06-10T10:35:01;26.30;67.10
74657;DHT22;63185;45.642;13.764;2023-06-10T10:37:31;26.30;66.50
74657;DHT22;63185;45.642;13.764;2023-06-10T10:39:57;26.40;64.90
74657;DHT22;63185;45.642;13.764;2023-06-10T10:42:24;26.40;66.20
74657;DHT22;63185;45.642;13.764;2023-06-10T10:44:50;26.40;64.60
74657;DHT22;63185;45.642;13.764;2023-06-10T10:47:20;26.40;66.70
74657;DHT22;63185;45.642;13.764;2023-06-10T10:49:50;26.70;67.30
74657;DHT22;63185;45.642;13.764;2023-06-10T10:52:16;26.30;67.00
74657;DHT22;63185;45.642;13.764;2023-06-10T10:54:46;26.20;68.50
74657;DHT22;63185;45.642;13.764;2023-06-10T10:57:20;26.20;66.90
74657;DHT22;63185;45.642;13.764;2023-06-10T11:02:46;26.40;67.40
74657;DHT22;63185;45.642;13.764;2023-06-10T11:05:15;26.80;66.40
74657;DHT22;63185;45.642;13.764;2023-06-10T11:07:52;26.40;66.20
74657;DHT22;63185;45.642;13.764;2023-06-10T11:10:32;26.40;65.80
74657;DHT22;63185;45.642;13.764;2023-06-10T11:12:58;26.70;66.90
74657;DHT22;63185;45.642;13.764;2023-06-10T11:15:27;26.80;66.30
74657;DHT22;63185;45.642;13.764;2023-06-10T11:28:41;26.60;65.70
74657;DHT22;63185;45.642;13.764;2023-06-10T11:31:09;26.80;65.40
74657;DHT22;63185;45.642;13.764;2023-06-10T11:33:38;26.50;67.30
74657;DHT22;63185;45.642;13.764;2023-06-10T11:36:06;26.80;67.40
74657;DHT22;63185;45.642;13.764;2023-06-10T11:38:35;26.60;64.60
74657;DHT22;63185;45.642;13.764;2023-06-10T11:41:02;26.30;65.50
74657;DHT22;63185;45.642;13.764;2023-06-10T11:43:27;26.30;67.00
74657;DHT22;63185;45.642;13.764;2023-06-10T11:45:54;26.60;65.70
74657;DHT22;63185;45.642;13.764;2023-06-10T11:48:21;26.60;66.40
74657;DHT22;63185;45.642;13.764;2023-06-10T11:50:47;26.80;67.60
74657;DHT22;63185;45.642;13.764;2023-06-10T11:53:12;26.90;65.00
74657;DHT22;63185;45.642;13.764;2023-06-10T11:55:42;26.60;66.70
74657;DHT22;63185;45.642;13.764;2023-06-10T11:58:14;27.00;66.80
74657;DHT22;63185;45.642;13.764;2023-06-10T12:00:58;27.40;64.60
74657;DHT22;63185;45.642;13.764;2023-06-10T12:03:27;27.50;65.10
74657;DHT22;63185;45.642;13.764;2023-06-10T12:06:03;27.60;64.90
74657;DHT22;63185;45.642;13.764;2023-06-10T12:08:29;27.50;65.50
74657;DHT22;63185;45.642;13.764;2023-06-10T12:10:56;27.60;64.10
74657;DHT22;63185;45.642;13.764;2023-06-10T12:13:23;27.70;63.30
74657;DHT22;63185;45.642;13.764;2023-06-10T12:15:51;27.70;62.60
74657;DHT22;63185;45.642;13.764;2023-06-10T12:18:22;27.50;62.90
74657;DHT22;63185;45.642;13.764;2023-06-10T12:20:48;27.10;64.70
74657;DHT22;63185;45.642;13.764;2023-06-10T12:23:15;27.30;65.30
74657;DHT22;63185;45.642;13.764;2023-06-10T12:25:54;27.80;64.00
74657;DHT22;63185;45.642;13.764;2023-06-10T12:28:24;27.50;64.90
74657;DHT22;63185;45.642;13.764;2023-06-10T12:30:51;27.60;64.50
74657;DHT22;63185;45.642;13.764;2023-06-10T12:33:21;27.10;64.30
74657;DHT22;63185;45.642;13.764;2023-06-10T12:35:51;27.10;64.70
74657;DHT22;63185;45.642;13.764;2023-06-10T12:38:24;27.00;59.20
74657;DHT22;63185;45.642;13.764;2023-06-10T12:40:50;26.90;56.60
74657;DHT22;63185;45.642;13.764;2023-06-10T12:43:23;26.80;55.00
74657;DHT22;63185;45.642;13.764;2023-06-10T12:45:49;26.80;53.20
74657;DHT22;63185;45.642;13.764;2023-06-10T12:48:19;26.80;53.20
74657;DHT22;63185;45.642;13.764;2023-06-10T12:50:51;26.80;51.30
74657;DHT22;63185;45.642;13.764;2023-06-10T12:53:17;27.10;51.90
74657;DHT22;63185;45.642;13.764;2023-06-10T12:55:43;27.20;49.90
74657;DHT22;63185;45.642;13.764;2023-06-10T12:58:10;27.10;50.10
74657;DHT22;63185;45.642;13.764;2023-06-10T13:00:36;26.90;50.30
74657;DHT22;63185;45.642;13.764;2023-06-10T13:03:03;27.10;49.70
74657;DHT22;63185;45.642;13.764;2023-06-10T13:05:31;27.10;49.50
74657;DHT22;63185;45.642;13.764;2023-06-10T13:07:57;27.20;50.40
74657;DHT22;63185;45.642;13.764;2023-06-10T13:10:24;27.40;51.20
74657;DHT22;63185;45.642;13.764;2023-06-10T13:12:50;27.60;51.10
74657;DHT22;63185;45.642;13.764;2023-06-10T13:15:17;27.70;50.00
74657;DHT22;63185;45.642;13.764;2023-06-10T13:17:46;27.70;51.30
74657;DHT22;63185;45.642;13.764;2023-06-10T13:20:16;27.90;49.80
74657;DHT22;63185;45.642;13.764;2023-06-10T13:22:42;27.70;50.80
74657;DHT22;63185;45.642;13.764;2023-06-10T13:25:09;27.60;51.30
74657;DHT22;63185;45.642;13.764;2023-06-10T13:27:37;27.70;52.00
74657;DHT22;63185;45.642;13.764;2023-06-10T13:30:05;27.80;52.30
74657;DHT22;63185;45.642;13.764;2023-06-10T13:32:31;27.70;53.30
74657;DHT22;63185;45.642;13.764;2023-06-10T13:34:57;27.70;53.10
74657;DHT22;63185;45.642;13.764;2023-06-10T13:37:23;27.40;53.70
74657;DHT22;63185;45.642;13.764;2023-06-10T13:39:49;27.30;55.00
74657;DHT22;63185;45.642;13.764;2023-06-10T13:42:19;27.30;54.10
74657;DHT22;63185;45.642;13.764;2023-06-10T13:44:46;27.30;54.70
74657;DHT22;63185;45.642;13.764;2023-06-10T13:47:13;27.10;55.60
74657;DHT22;63185;45.642;13.764;2023-06-10T13:49:38;27.00;56.90
74657;DHT22;63185;45.642;13.764;2023-06-10T13:52:05;27.00;55.80
74657;DHT22;63185;45.642;13.764;2023-06-10T13:54:31;27.00;56.20
74657;DHT22;63185;45.642;13.764;2023-06-10T13:56:57;27.10;56.00
74657;DHT22;63185;45.642;13.764;2023-06-10T13:59:23;27.30;56.30
74657;DHT22;63185;45.642;13.764;2023-06-10T14:01:49;27.50;57.40
74657;DHT22;63185;45.642;13.764;2023-06-10T14:04:14;27.60;57.40
74657;DHT22;63185;45.642;13.764;2023-06-10T14:06:40;27.70;57.80
74657;DHT22;63185;45.642;13.764;2023-06-10T14:09:06;27.80;58.60
74657;DHT22;63185;45.642;13.764;2023-06-10T14:11:32;28.10;58.10
74657;DHT22;63185;45.642;13.764;2023-06-10T14:13:58;27.80;58.20
74657;DHT22;63185;45.642;13.764;2023-06-10T14:16:27;27.80;58.30
74657;DHT22;63185;45.642;13.764;2023-06-10T14:18:53;27.70;56.20
74657;DHT22;63185;45.642;13.764;2023-06-10T14:21:19;27.70;56.40
74657;DHT22;63185;45.642;13.764;2023-06-10T14:23:45;27.50;56.30
74657;DHT22;63185;45.642;13.764;2023-06-10T14:26:11;27.30;56.00
74657;DHT22;63185;45.642;13.764;2023-06-10T14:28:37;27.10;54.70
74657;DHT22;63185;45.642;13.764;2023-06-10T14:31:02;27.00;55.70
74657;DHT22;63185;45.642;13.764;2023-06-10T14:33:28;27.00;54.40
74657;DHT22;63185;45.642;13.764;2023-06-10T14:35:54;26.90;54.40
74657;DHT22;63185;45.642;13.764;2023-06-10T14:38:20;27.00;54.00
74657;DHT22;63185;45.642;13.764;2023-06-10T14:40:45;27.10;53.90
74657;DHT22;63185;45.642;13.764;2023-06-10T14:43:11;27.50;54.10
74657;DHT22;63185;45.642;13.764;2023-06-10T14:45:41;27.60;53.90
74657;DHT22;63185;45.642;13.764;2023-06-10T14:48:07;27.90;53.90
74657;DHT22;63185;45.642;13.764;2023-06-10T14:50:37;28.00;54.10
74657;DHT22;63185;45.642;13.764;2023-06-10T14:53:03;28.20;53.30
74657;DHT22;63185;45.642;13.764;2023-06-10T14:55:28;28.40;53.00
74657;DHT22;63185;45.642;13.764;2023-06-10T14:57:54;28.30;53.40
74657;DHT22;63185;45.642;13.764;2023-06-10T15:00:21;28.30;53.70
74657;DHT22;63185;45.642;13.764;2023-06-10T15:02:49;28.20;54.70
74657;DHT22;63185;45.642;13.764;2023-06-10T15:05:15;28.40;53.30
74657;DHT22;63185;45.642;13.764;2023-06-10T15:07:42;28.30;53.90
74657;DHT22;63185;45.642;13.764;2023-06-10T15:10:08;28.30;53.70
74657;DHT22;63185;45.642;13.764;2023-06-10T15:12:34;28.80;53.60
74657;DHT22;63185;45.642;13.764;2023-06-10T15:15:00;29.50;52.50
74657;DHT22;63185;45.642;13.764;2023-06-10T15:17:26;29.80;51.20
74657;DHT22;63185;45.642;13.764;2023-06-10T15:19:52;30.10;49.70
74657;DHT22;63185;45.642;13.764;2023-06-10T15:22:17;29.90;49.20
74657;DHT22;63185;45.642;13.764;2023-06-10T15:24:43;29.90;47.90
74657;DHT22;63185;45.642;13.764;2023-06-10T15:27:09;29.70;48.80
74657;DHT22;63185;45.642;13.764;2023-06-10T15:29:35;29.60;49.70
74657;DHT22;63185;45.642;13.764;2023-06-10T15:32:01;29.70;51.00
74657;DHT22;63185;45.642;13.764;2023-06-10T15:34:26;29.20;49.40
74657;DHT22;63185;45.642;13.764;2023-06-10T15:36:52;29.20;48.80
74657;DHT22;63185;45.642;13.764;2023-06-10T15:39:17;28.80;49.70
74657;DHT22;63185;45.642;13.764;2023-06-10T15:41:44;28.60;50.20
74657;DHT22;63185;45.642;13.764;2023-06-10T15:44:10;29.00;49.10
74657;DHT22;63185;45.642;13.764;2023-06-10T15:46:36;29.40;48.60
74657;DHT22;63185;45.642;13.764;2023-06-10T15:49:02;29.80;48.40